In Rescue
 
Open Full Screen Window  High Contrast Mode
September 18, 2020 9:38 PM EDT
Weather Information
Wind Direction
  ---
Wind Speed
  00 kt (0 mph)
Wind Gust
  00 kt (0 mph)
Altimeter
30.39 in
Visibility
10 SM
Temperature
07° C
45° F
Dewpoint
02° C
36° F
Humidity
71%
1hr Rain Fall
00.00 in.
24hr Rain Fall
00.00 in.
Sky Condition
Clear
VFR

METAR KLDM 190138Z AUTO 00000KT 10SM CLR 07/02 A3039 RMK AO2 T00720016

FAA Disclaimer: The data displayed is for advisory purposes only and is not to be used for flight planning or operations.